AFL008 EDVK-EDDN
Flight info
| Callsign | AFL008 |
|---|---|
| Flight time | N/A |
| Altitude | 27000 |
| Route | ELNAT1W ELNAT DCT FUL DCT DODAS DODAS1T |
| Aircraft | T154/M-SDGRWY/S |
Departure
| Time | 2026-04-30 07:00 |
|---|---|
| Airport | Kassel Airport (EDVK) |
Arrival
| Time | N/A |
|---|---|
| Airport | Nuremberg Airport (EDDN) |
| Time | Latitude | Longitude | Altitude | Speed | Heading |
|---|---|---|---|---|---|
| 2026-04-30 06:37 | 51.41824 | 9.38763 | 872 ft | 0 kts | 274° |
| 2026-04-30 06:56 | 51.41840 | 9.38737 | 871 ft | 8 kts | 349° |
| 2026-04-30 06:57 | 51.41848 | 9.38819 | 871 ft | 7 kts | 88° |
| 2026-04-30 06:57 | 51.41901 | 9.38861 | 871 ft | 12 kts | 350° |
| 2026-04-30 06:57 | 51.41949 | 9.38730 | 871 ft | 16 kts | 276° |
| 2026-04-30 06:57 | 51.41959 | 9.38531 | 871 ft | 19 kts | 274° |
| 2026-04-30 06:58 | 51.41971 | 9.38292 | 871 ft | 24 kts | 274° |
| 2026-04-30 06:58 | 51.41987 | 9.37999 | 871 ft | 28 kts | 275° |
| 2026-04-30 06:58 | 51.42005 | 9.37676 | 871 ft | 26 kts | 274° |
| 2026-04-30 06:58 | 51.42021 | 9.37467 | 871 ft | 14 kts | 296° |
| 2026-04-30 06:59 | 51.42109 | 9.37427 | 871 ft | 13 kts | 3° |
| 2026-04-30 06:59 | 51.42175 | 9.37506 | 871 ft | 12 kts | 84° |
| 2026-04-30 06:59 | 51.42170 | 9.37620 | 871 ft | 1 kts | 96° |
| 2026-04-30 06:59 | 51.42164 | 9.37714 | 871 ft | 36 kts | 96° |
| 2026-04-30 07:00 | 51.42112 | 9.38611 | 872 ft | 123 kts | 95° |
| 2026-04-30 07:00 | 51.42025 | 9.40321 | 1127 ft | 170 kts | 94° |
| 2026-04-30 07:00 | 51.41974 | 9.42249 | 1930 ft | 176 kts | 91° |
| 2026-04-30 07:00 | 51.41912 | 9.44159 | 2901 ft | 180 kts | 96° |
| 2026-04-30 07:01 | 51.41761 | 9.46325 | 3572 ft | 215 kts | 97° |
| 2026-04-30 07:01 | 51.41592 | 9.48852 | 4496 ft | 240 kts | 97° |
| 2026-04-30 07:01 | 51.41427 | 9.51579 | 5585 ft | 258 kts | 97° |
| 2026-04-30 07:01 | 51.41264 | 9.54425 | 6756 ft | 270 kts | 98° |
| 2026-04-30 07:02 | 51.41099 | 9.57350 | 7957 ft | 280 kts | 98° |
| 2026-04-30 07:02 | 51.40924 | 9.59936 | 9000 ft | 284 kts | 105° |
| 2026-04-30 07:02 | 51.40167 | 9.63013 | 10301 ft | 282 kts | 127° |
| 2026-04-30 07:02 | 51.38872 | 9.65269 | 11465 ft | 279 kts | 149° |
| 2026-04-30 07:03 | 51.37316 | 9.66726 | 12517 ft | 278 kts | 158° |
| 2026-04-30 07:03 | 51.35558 | 9.68245 | 13654 ft | 283 kts | 155° |
| 2026-04-30 07:03 | 51.33902 | 9.69870 | 14726 ft | 284 kts | 157° |
| 2026-04-30 07:03 | 51.32138 | 9.70936 | 15758 ft | 272 kts | 179° |
| 2026-04-30 07:04 | 51.30323 | 9.70951 | 16781 ft | 258 kts | 197° |
| 2026-04-30 07:04 | 51.28635 | 9.70475 | 17763 ft | 255 kts | 198° |
| 2026-04-30 07:04 | 51.26894 | 9.70037 | 18720 ft | 255 kts | 197° |
| 2026-04-30 07:04 | 51.25167 | 9.69720 | 19623 ft | 254 kts | 196° |
| 2026-04-30 07:05 | 51.21741 | 9.69284 | 21277 ft | 251 kts | 196° |
| 2026-04-30 07:05 | 51.20043 | 9.69106 | 22036 ft | 249 kts | 196° |
| 2026-04-30 07:05 | 51.18373 | 9.68856 | 22763 ft | 243 kts | 201° |
| 2026-04-30 07:06 | 51.16722 | 9.68490 | 23447 ft | 241 kts | 202° |
| 2026-04-30 07:06 | 51.15111 | 9.68131 | 24073 ft | 240 kts | 202° |
| 2026-04-30 07:06 | 51.13487 | 9.67787 | 24670 ft | 239 kts | 202° |
| 2026-04-30 07:06 | 51.11859 | 9.67454 | 25234 ft | 238 kts | 202° |
| 2026-04-30 07:07 | 51.10246 | 9.67134 | 25722 ft | 240 kts | 203° |
| 2026-04-30 07:07 | 51.08604 | 9.66797 | 26069 ft | 247 kts | 203° |
| 2026-04-30 07:07 | 51.06908 | 9.66457 | 26473 ft | 252 kts | 202° |
| 2026-04-30 07:07 | 51.05190 | 9.66120 | 26904 ft | 256 kts | 203° |
| 2026-04-30 07:08 | 51.03419 | 9.65776 | 27356 ft | 258 kts | 203° |
| 2026-04-30 07:08 | 51.01704 | 9.65442 | 27782 ft | 260 kts | 203° |
| 2026-04-30 07:08 | 50.99905 | 9.65092 | 28200 ft | 262 kts | 203° |
| 2026-04-30 07:08 | 50.98126 | 9.64745 | 28597 ft | 265 kts | 204° |
| 2026-04-30 07:09 | 50.96287 | 9.64377 | 28813 ft | 275 kts | 203° |
| 2026-04-30 07:09 | 50.94443 | 9.64009 | 29042 ft | 284 kts | 203° |
| 2026-04-30 07:09 | 50.92485 | 9.63626 | 29332 ft | 291 kts | 202° |
| 2026-04-30 07:09 | 50.90495 | 9.63242 | 29651 ft | 297 kts | 202° |
| 2026-04-30 07:10 | 50.88627 | 9.62874 | 29644 ft | 314 kts | 201° |
| 2026-04-30 07:10 | 50.87046 | 9.62562 | 29638 ft | 327 kts | 201° |